createdAt,value
2018-11-01T00:00:10.322Z,97822.00
2018-11-01T00:00:41.915Z,97827.11
2018-11-01T00:01:13.508Z,97825.45
2018-11-01T00:01:45.095Z,97825.45
2018-11-01T00:02:16.683Z,97830.15
2018-11-01T00:02:48.267Z,97819.50
2018-11-01T00:03:19.866Z,97817.80
2018-11-01T00:03:51.493Z,97816.16
2018-11-01T00:04:23.088Z,97817.44
2018-11-01T00:04:54.666Z,97813.61
2018-11-01T00:05:26.265Z,97814.91
2018-11-01T00:05:57.855Z,97815.38
2018-11-01T00:06:29.441Z,97819.22
2018-11-01T00:07:01.028Z,97811.58
2018-11-01T00:07:32.607Z,97813.33
2018-11-01T00:08:04.215Z,97810.34
2018-11-01T00:08:35.826Z,97809.94
2018-11-01T00:09:07.409Z,97808.29
2018-11-01T00:09:39.017Z,97807.45
2018-11-01T00:10:10.626Z,97811.30
2018-11-01T00:10:42.230Z,97807.47
2018-11-01T00:11:13.820Z,97805.76
2018-11-01T00:11:45.410Z,97809.21
2018-11-01T00:12:17.000Z,97810.08
2018-11-01T00:12:48.602Z,97804.13
2018-11-01T00:13:20.206Z,97804.98
2018-11-01T00:13:51.810Z,97811.81
2018-11-01T00:14:23.386Z,97803.33
2018-11-01T00:14:54.992Z,97808.45
2018-11-01T00:15:26.587Z,97810.59
2018-11-01T00:15:58.176Z,97805.47
2018-11-01T00:16:29.767Z,97806.73
2018-11-01T00:17:01.358Z,97800.42
2018-11-01T00:17:32.944Z,97800.35
2018-11-01T00:18:04.542Z,97804.13
2018-11-01T00:18:36.163Z,97800.69
2018-11-01T00:19:07.780Z,97795.09
2018-11-01T00:19:39.372Z,97801.43
2018-11-01T00:20:10.966Z,97794.61
2018-11-01T00:20:42.552Z,97797.16
2018-11-01T00:21:14.141Z,97798.84
2018-11-01T00:21:45.732Z,97795.02
2018-11-01T00:22:17.344Z,97798.84
2018-11-01T00:22:48.922Z,97791.63
2018-11-01T00:23:20.575Z,97796.30
2018-11-01T00:23:52.196Z,97794.19
2018-11-01T00:24:23.789Z,97792.95
2018-11-01T00:24:55.369Z,97794.66
2018-11-01T00:25:26.975Z,97786.16
2018-11-01T00:25:58.577Z,97784.45
2018-11-01T00:26:30.185Z,97781.52
2018-11-01T00:27:01.776Z,97790.89
2018-11-01T00:27:33.373Z,97783.25
2018-11-01T00:28:04.954Z,97783.66
2018-11-01T00:28:36.544Z,97781.17
2018-11-01T00:29:08.160Z,97780.69
2018-11-01T00:29:39.748Z,97781.55
2018-11-01T00:30:11.327Z,97781.55
2018-11-01T00:30:42.911Z,97784.97
2018-11-01T00:31:14.512Z,97785.45
2018-11-01T00:31:46.090Z,97778.20
2018-11-01T00:32:17.690Z,97782.89
2018-11-01T00:32:49.265Z,97787.15
2018-11-01T00:33:20.866Z,97785.45
2018-11-01T00:33:52.483Z,97785.89
2018-11-01T00:34:24.076Z,97791.47
2018-11-01T00:34:55.664Z,97786.80
2018-11-01T00:35:27.265Z,97786.81
2018-11-01T00:35:58.869Z,97785.96
2018-11-01T00:36:30.469Z,97785.11
2018-11-01T00:37:02.055Z,97781.70
2018-11-01T00:37:33.650Z,97785.12
2018-11-01T00:38:05.226Z,97786.88
2018-11-01T00:38:36.820Z,97782.63
2018-11-01T00:39:08.435Z,97779.20
2018-11-01T00:39:40.023Z,97782.20
2018-11-01T00:40:11.602Z,97783.95
2018-11-01T00:40:43.215Z,97783.53
2018-11-01T00:41:14.820Z,97779.28
2018-11-01T00:41:46.407Z,97778.44
2018-11-01T00:42:18.010Z,97778.88
2018-11-01T00:42:49.581Z,97778.02
2018-11-01T00:43:21.168Z,97784.03
2018-11-01T00:43:52.797Z,97784.41
2018-11-01T00:44:24.416Z,97777.61
2018-11-01T00:44:56.008Z,97775.05
2018-11-01T00:45:27.600Z,97775.09
2018-11-01T00:45:59.206Z,97779.34
2018-11-01T00:46:30.818Z,97775.95
2018-11-01T00:47:02.413Z,97777.23
2018-11-01T00:47:34.015Z,97779.80
2018-11-01T00:48:05.634Z,97770.00
2018-11-01T00:48:37.223Z,97772.98
2018-11-01T00:49:08.853Z,97772.61
2018-11-01T00:49:40.453Z,97773.00
2018-11-01T00:50:12.049Z,97780.66
2018-11-01T00:50:43.650Z,97773.00
2018-11-01T00:51:15.239Z,97768.81
2018-11-01T00:51:46.815Z,97779.85
2018-11-01T00:52:18.422Z,97771.34
2018-11-01T00:52:50.016Z,97772.20
2018-11-01T00:53:21.610Z,97776.47
2018-11-01T00:53:53.214Z,97769.64
2018-11-01T00:54:24.842Z,97770.08
2018-11-01T00:54:56.453Z,97767.52
2018-11-01T00:55:28.043Z,97766.73
2018-11-01T00:55:59.718Z,97772.22
2018-11-01T00:56:31.323Z,97768.45
2018-11-01T00:57:02.916Z,97768.45
2018-11-01T00:57:34.504Z,97762.11
2018-11-01T00:58:06.092Z,97765.10
2018-11-01T00:58:37.703Z,97765.97
2018-11-01T00:59:09.338Z,97760.02
2018-11-01T00:59:40.922Z,97766.83
2018-11-01T01:00:12.511Z,97762.15
2018-11-01T01:00:44.095Z,97758.31
2018-11-01T01:01:15.689Z,97764.70
2018-11-01T01:01:47.277Z,97757.92
2018-11-01T01:02:18.874Z,97753.63
2018-11-01T01:02:50.484Z,97749.38
2018-11-01T01:03:22.075Z,97751.12
2018-11-01T01:03:53.659Z,97749.38
2018-11-01T01:04:25.286Z,97753.67
2018-11-01T01:04:56.882Z,97746.44
2018-11-01T01:05:28.457Z,97743.05
2018-11-01T01:06:00.034Z,97744.73
2018-11-01T01:06:31.629Z,97743.41
2018-11-01T01:07:03.220Z,97742.97
2018-11-01T01:07:34.802Z,97743.03
2018-11-01T01:08:06.388Z,97749.34
2018-11-01T01:08:37.990Z,97747.23
2018-11-01T01:09:09.609Z,97748.52
2018-11-01T01:09:41.195Z,97750.27
2018-11-01T01:10:12.794Z,97749.84
2018-11-01T01:10:44.387Z,97754.53
2018-11-01T01:11:15.990Z,97751.13
2018-11-01T01:11:47.576Z,97745.19
2018-11-01T01:12:19.167Z,97749.88
2018-11-01T01:12:50.772Z,97753.75
2018-11-01T01:13:22.371Z,97750.36
2018-11-01T01:13:53.969Z,97754.20
2018-11-01T01:14:25.584Z,97753.78
2018-11-01T01:14:57.177Z,97752.08
2018-11-01T01:15:28.782Z,97748.71
2018-11-01T01:16:00.385Z,97748.71
2018-11-01T01:16:31.990Z,97748.71
2018-11-01T01:17:03.602Z,97750.42
2018-11-01T01:17:35.200Z,97741.44
2018-11-01T01:18:06.806Z,97744.87
2018-11-01T01:18:38.396Z,97747.83
2018-11-01T01:19:10.010Z,97735.94
2018-11-01T01:19:41.626Z,97738.88
2018-11-01T01:20:13.226Z,97745.27
2018-11-01T01:20:44.817Z,97744.41
2018-11-01T01:21:16.418Z,97744.84
2018-11-01T01:21:48.028Z,97741.00
2018-11-01T01:22:19.624Z,97739.30
2018-11-01T01:22:51.226Z,97739.72
2018-11-01T01:23:22.816Z,97738.88
2018-11-01T01:23:54.403Z,97738.03
2018-11-01T01:24:26.016Z,97731.68
2018-11-01T01:24:57.613Z,97737.23
2018-11-01T01:25:29.203Z,97735.09
2018-11-01T01:26:00.809Z,97730.05
2018-11-01T01:26:32.423Z,97737.25
2018-11-01T01:27:04.034Z,97733.41
2018-11-01T01:27:35.660Z,97736.80
2018-11-01T01:28:07.252Z,97732.61
2018-11-01T01:28:38.847Z,97727.86
2018-11-01T01:29:10.460Z,97731.28
2018-11-01T01:29:42.057Z,97728.73
2018-11-01T01:30:13.647Z,97731.28
2018-11-01T01:30:45.236Z,97731.75
2018-11-01T01:31:16.821Z,97727.53
2018-11-01T01:31:48.409Z,97730.91
2018-11-01T01:32:20.010Z,97731.34
2018-11-01T01:32:51.599Z,97728.80
2018-11-01T01:33:23.185Z,97729.22
2018-11-01T01:33:54.786Z,97734.33
2018-11-01T01:34:26.461Z,97738.59
2018-11-01T01:34:58.040Z,97736.46
2018-11-01T01:35:29.618Z,97736.05
2018-11-01T01:36:01.223Z,97736.46
2018-11-01T01:36:32.812Z,97735.19
2018-11-01T01:37:04.409Z,97734.81
2018-11-01T01:37:36.000Z,97737.37
2018-11-01T01:38:07.602Z,97735.66
2018-11-01T01:38:39.189Z,97738.22
2018-11-01T01:39:10.790Z,97736.09
2018-11-01T01:39:42.381Z,97734.82
2018-11-01T01:40:13.971Z,97738.66
2018-11-01T01:40:45.578Z,97741.20
2018-11-01T01:41:17.182Z,97745.41
2018-11-01T01:41:48.779Z,97742.48
2018-11-01T01:42:20.382Z,97746.67
2018-11-01T01:42:51.971Z,97742.41
2018-11-01T01:43:23.574Z,97739.84
2018-11-01T01:43:55.164Z,97740.30
2018-11-01T01:44:26.783Z,97745.42
2018-11-01T01:44:58.382Z,97750.99
2018-11-01T01:45:29.985Z,97742.05
2018-11-01T01:46:01.582Z,97743.28
2018-11-01T01:46:33.186Z,97744.54
2018-11-01T01:47:04.798Z,97746.17
2018-11-01T01:47:36.401Z,97744.83
2018-11-01T01:48:07.991Z,97743.05
2018-11-01T01:48:39.577Z,97741.27
2018-11-01T01:49:11.164Z,97738.70
2018-11-01T01:49:42.752Z,97742.02
2018-11-01T01:50:14.385Z,97739.83
2018-11-01T01:50:46.012Z,97742.38
2018-11-01T01:51:17.600Z,97735.94
2018-11-01T01:51:49.201Z,97733.36
2018-11-01T01:52:20.792Z,97735.48
2018-11-01T01:52:52.389Z,97735.49
2018-11-01T01:53:23.994Z,97738.11
2018-11-01T01:53:55.590Z,97735.59
2018-11-01T01:54:27.207Z,97733.95
2018-11-01T01:54:58.786Z,97735.28
2018-11-01T01:55:30.380Z,97735.73
2018-11-01T01:56:01.972Z,97731.47
2018-11-01T01:56:33.574Z,97728.08
2018-11-01T01:57:05.164Z,97727.27
2018-11-01T01:57:36.748Z,97727.64
2018-11-01T01:58:08.336Z,97694.09
2018-11-01T01:58:39.909Z,97725.42
2018-11-01T01:59:11.626Z,97720.30
2018-11-01T01:59:43.229Z,97719.82
2018-11-01T02:00:14.816Z,97724.50
2018-11-01T02:00:46.407Z,97721.88
2018-11-01T02:01:17.997Z,97718.05
2018-11-01T02:01:49.598Z,97720.66
2018-11-01T02:02:21.196Z,97720.25
2018-11-01T02:02:52.797Z,97718.20
2018-11-01T02:03:24.388Z,97726.70
2018-11-01T02:03:55.980Z,97722.50
2018-11-01T02:04:27.609Z,97733.58
2018-11-01T02:04:59.197Z,97729.34
2018-11-01T02:05:30.774Z,97732.81
2018-11-01T02:06:02.385Z,97728.13
2018-11-01T02:06:33.997Z,97734.11
2018-11-01T02:07:05.602Z,97728.63
2018-11-01T02:07:37.191Z,97729.05
2018-11-01T02:08:08.792Z,97726.52
2018-11-01T02:08:40.375Z,97721.84
2018-11-01T02:09:11.964Z,97724.03
2018-11-01T02:09:43.594Z,97726.15
2018-11-01T02:10:15.187Z,97722.75
2018-11-01T02:10:46.792Z,97726.16
2018-11-01T02:11:18.398Z,97721.13
2018-11-01T02:11:50.044Z,97725.38
2018-11-01T02:12:21.603Z,97728.77
2018-11-01T02:12:53.192Z,97728.36
2018-11-01T02:13:24.779Z,97721.53
2018-11-01T02:13:56.382Z,97722.83
2018-11-01T02:14:27.962Z,97719.41
2018-11-01T02:14:59.969Z,97719.42
2018-11-01T02:15:31.568Z,97724.97
2018-11-01T02:16:03.170Z,97721.15
2018-11-01T02:16:34.778Z,97719.02
2018-11-01T02:17:06.371Z,97717.73
2018-11-01T02:17:37.976Z,97716.51
2018-11-01T02:18:09.599Z,97717.78
2018-11-01T02:18:41.426Z,97717.36
2018-11-01T02:19:13.149Z,97712.25
2018-11-01T02:19:44.763Z,97708.88
2018-11-01T02:20:16.340Z,97717.36
2018-11-01T02:20:47.942Z,97720.34
2018-11-01T02:21:19.531Z,97716.08
2018-11-01T02:21:51.138Z,97722.47
2018-11-01T02:22:22.714Z,97718.20
2018-11-01T02:22:54.294Z,97714.80
2018-11-01T02:23:25.880Z,97718.64
2018-11-01T02:23:57.458Z,97718.64
2018-11-01T02:24:29.062Z,97717.81
2018-11-01T02:25:00.666Z,97719.08
2018-11-01T02:25:32.251Z,97725.47
2018-11-01T02:26:03.849Z,97718.66
2018-11-01T02:26:35.455Z,97723.77
2018-11-01T02:27:07.044Z,97712.75
2018-11-01T02:27:38.632Z,97721.70
2018-11-01T02:28:10.228Z,97712.33
2018-11-01T02:28:41.833Z,97708.09
2018-11-01T02:29:13.426Z,97709.38
2018-11-01T02:29:45.039Z,97709.80
2018-11-01T02:30:16.637Z,97713.69
2018-11-01T02:30:48.242Z,97719.22
2018-11-01T02:31:19.838Z,97717.09
2018-11-01T02:31:51.445Z,97714.11
2018-11-01T02:32:23.044Z,97704.13
2018-11-01T02:32:54.654Z,97714.52
2018-11-01T02:33:26.249Z,97716.19
2018-11-01T02:33:57.857Z,97717.02
2018-11-01T02:34:29.452Z,97711.90
2018-11-01T02:35:01.078Z,97717.43
2018-11-01T02:35:32.687Z,97721.27
2018-11-01T02:36:04.276Z,97718.28
2018-11-01T02:36:35.849Z,97718.72
2018-11-01T02:37:07.454Z,97715.75
2018-11-01T02:37:39.042Z,97718.73
2018-11-01T02:38:10.651Z,97716.59
2018-11-01T02:38:42.395Z,97714.91
2018-11-01T02:39:13.887Z,97708.58
2018-11-01T02:39:45.504Z,97716.25
2018-11-01T02:40:17.101Z,97714.55
2018-11-01T02:40:48.682Z,97713.28
2018-11-01T02:41:20.283Z,97718.81
2018-11-01T02:41:51.882Z,97717.16
2018-11-01T02:42:23.462Z,97709.94
2018-11-01T02:42:55.062Z,97715.89
2018-11-01T02:43:26.664Z,97713.34
2018-11-01T02:43:58.239Z,97709.52
2018-11-01T02:44:29.852Z,97717.20
2018-11-01T02:45:01.472Z,97709.95
2018-11-01T02:45:33.060Z,97704.90
2018-11-01T02:46:04.654Z,97710.43
2018-11-01T02:46:36.240Z,97707.02
2018-11-01T02:47:07.822Z,97705.27
2018-11-01T02:47:39.411Z,97708.17
2018-11-01T02:48:11.014Z,97709.38
2018-11-01T02:48:42.607Z,97709.78
2018-11-01T02:49:14.246Z,97709.78
2018-11-01T02:49:45.847Z,97709.72
2018-11-01T02:50:17.518Z,97711.41
2018-11-01T02:50:49.083Z,97706.30
2018-11-01T02:51:20.682Z,97710.55
2018-11-01T02:51:52.273Z,97703.74
2018-11-01T02:52:23.873Z,97702.47
2018-11-01T02:52:55.478Z,97702.47
2018-11-01T02:53:27.082Z,97702.05
2018-11-01T02:53:58.658Z,97704.92
2018-11-01T02:54:30.257Z,97703.27
2018-11-01T02:55:01.864Z,97708.06
2018-11-01T02:55:33.466Z,97703.47
2018-11-01T02:56:05.056Z,97699.73
2018-11-01T02:56:36.656Z,97707.05
2018-11-01T02:57:08.239Z,97698.23
2018-11-01T02:57:39.844Z,97704.03
2018-11-01T02:58:11.446Z,97696.80
2018-11-01T02:58:43.054Z,97699.70
2018-11-01T02:59:14.660Z,97702.62
2018-11-01T02:59:46.318Z,97700.00
2018-11-01T03:00:17.880Z,97698.73
2018-11-01T03:00:49.472Z,97701.64
2018-11-01T03:01:21.078Z,97694.34
2018-11-01T03:01:52.680Z,97697.73
2018-11-01T03:02:24.276Z,97692.56
2018-11-01T03:02:55.863Z,97686.60
2018-11-01T03:03:27.451Z,97687.44
2018-11-01T03:03:59.054Z,97686.59
2018-11-01T03:04:30.643Z,97687.81
2018-11-01T03:05:02.275Z,97685.69
2018-11-01T03:05:33.879Z,97684.40
2018-11-01T03:06:05.476Z,97677.17
2018-11-01T03:06:37.078Z,97677.17
2018-11-01T03:07:08.685Z,97675.47
2018-11-01T03:07:40.287Z,97678.45
2018-11-01T03:08:11.893Z,97675.89
2018-11-01T03:08:43.495Z,97677.59
2018-11-01T03:09:15.096Z,97675.03
2018-11-01T03:09:46.684Z,97678.02
2018-11-01T03:10:18.305Z,97678.44
2018-11-01T03:10:49.910Z,97684.37
2018-11-01T03:11:21.503Z,97685.23
2018-11-01T03:11:53.082Z,97681.82
2018-11-01T03:12:24.677Z,97683.05
2018-11-01T03:12:56.303Z,97682.63
2018-11-01T03:13:27.903Z,97686.04
2018-11-01T03:13:59.510Z,97680.08
2018-11-01T03:14:31.104Z,97678.44
2018-11-01T03:15:02.735Z,97678.00
2018-11-01T03:15:34.324Z,97684.82
2018-11-01T03:16:05.925Z,97681.84
2018-11-01T03:16:37.538Z,97682.69
2018-11-01T03:17:09.220Z,97675.39
2018-11-01T03:17:40.760Z,97677.50
2018-11-01T03:18:12.342Z,97676.20
2018-11-01T03:18:43.928Z,97673.23
2018-11-01T03:19:15.659Z,97679.98
2018-11-01T03:19:47.294Z,97681.69
2018-11-01T03:20:18.921Z,97676.57
2018-11-01T03:20:50.521Z,97677.86
2018-11-01T03:21:22.121Z,97674.46
2018-11-01T03:21:53.716Z,97668.93
2018-11-01T03:22:25.317Z,97670.69
2018-11-01T03:22:56.913Z,97662.20
2018-11-01T03:23:28.495Z,97669.91
2018-11-01T03:24:00.101Z,97635.53
2018-11-01T03:24:31.698Z,97668.70
2018-11-01T03:25:03.326Z,97664.45
2018-11-01T03:25:34.902Z,97666.59
2018-11-01T03:26:06.488Z,97668.31
2018-11-01T03:26:38.176Z,97673.90
2018-11-01T03:27:09.711Z,97676.03
2018-11-01T03:27:41.310Z,97671.78
2018-11-01T03:28:12.908Z,97674.75
2018-11-01T03:28:44.503Z,97677.74
2018-11-01T03:29:16.092Z,97674.77
2018-11-01T03:29:47.703Z,97670.98
2018-11-01T03:30:19.319Z,97667.15
2018-11-01T03:30:50.898Z,97667.58
2018-11-01T03:31:22.483Z,97641.70
2018-11-01T03:31:54.083Z,97675.24
2018-11-01T03:32:25.702Z,97676.95
2018-11-01T03:32:57.296Z,97683.77
2018-11-01T03:33:28.887Z,97675.69
2018-11-01T03:34:00.471Z,97678.24
2018-11-01T03:34:32.066Z,97677.83
2018-11-01T03:35:03.694Z,97684.21
2018-11-01T03:35:35.307Z,97683.36
2018-11-01T03:36:06.918Z,97687.20
2018-11-01T03:36:38.522Z,97681.70
2018-11-01T03:37:10.108Z,97685.11
2018-11-01T03:37:41.700Z,97677.45
2018-11-01T03:38:13.946Z,97683.41
2018-11-01T03:38:45.915Z,97687.62
2018-11-01T03:39:17.494Z,97686.39
2018-11-01T03:39:49.103Z,97682.98
2018-11-01T03:40:20.727Z,97682.98
2018-11-01T03:40:52.343Z,97693.98
2018-11-01T03:41:23.940Z,97685.89
2018-11-01T03:41:55.528Z,97681.22
2018-11-01T03:42:27.138Z,97685.88
2018-11-01T03:42:58.727Z,97682.91
2018-11-01T03:43:30.319Z,97686.73
2018-11-01T03:44:01.923Z,97680.31
2018-11-01T03:44:33.526Z,97683.70
2018-11-01T03:45:05.170Z,97687.08
2018-11-01T03:45:36.819Z,97683.64
2018-11-01T03:46:08.362Z,97684.47
2018-11-01T03:46:39.961Z,97684.87
2018-11-01T03:47:11.671Z,97684.41
2018-11-01T03:47:43.269Z,97681.00
2018-11-01T03:48:14.870Z,97678.02
2018-11-01T03:48:46.459Z,97684.38
2018-11-01T03:49:18.048Z,97686.50
2018-11-01T03:49:49.626Z,97679.29
2018-11-01T03:50:21.254Z,97688.55
2018-11-01T03:50:52.859Z,97690.20
2018-11-01T03:51:24.462Z,97688.48
2018-11-01T03:51:56.081Z,97687.62
2018-11-01T03:52:27.713Z,97689.70
2018-11-01T03:52:59.318Z,97685.42
2018-11-01T03:53:30.988Z,97690.05
2018-11-01T03:54:02.556Z,97690.45
2018-11-01T03:54:34.198Z,97653.48
2018-11-01T03:55:05.800Z,97688.75
2018-11-01T03:55:37.412Z,97691.73
2018-11-01T03:56:09.018Z,97688.75
2018-11-01T03:56:40.605Z,97688.33
2018-11-01T03:57:12.200Z,97692.17
2018-11-01T03:57:43.789Z,97692.17
2018-11-01T03:58:15.394Z,97679.83
2018-11-01T03:58:46.984Z,97677.27
2018-11-01T03:59:18.576Z,97675.20
2018-11-01T03:59:50.189Z,97679.88
2018-11-01T04:00:21.834Z,97677.33
2018-11-01T04:00:53.432Z,97676.92
2018-11-01T04:01:25.029Z,97678.22
2018-11-01T04:01:56.616Z,97671.84
2018-11-01T04:02:28.217Z,97674.86
2018-11-01T04:02:59.826Z,97670.20
2018-11-01T04:03:31.448Z,97665.10
2018-11-01T04:04:03.051Z,97660.45
2018-11-01T04:04:34.644Z,97659.61
2018-11-01T04:05:06.233Z,97657.07
2018-11-01T04:05:37.856Z,97663.46
2018-11-01T04:06:09.430Z,97657.94
2018-11-01T04:06:41.016Z,97665.59
2018-11-01T04:07:12.595Z,97666.87
2018-11-01T04:07:44.216Z,97664.72
2018-11-01T04:08:15.808Z,97664.72
2018-11-01T04:08:47.400Z,97670.67
2018-11-01T04:09:19.004Z,97671.11
2018-11-01T04:09:50.596Z,97667.27
2018-11-01T04:10:22.229Z,97663.02
2018-11-01T04:10:53.820Z,97667.73
2018-11-01T04:11:25.422Z,97662.18
2018-11-01T04:11:57.002Z,97660.50
2018-11-01T04:12:28.588Z,97662.66
2018-11-01T04:13:00.195Z,97663.52
2018-11-01T04:13:31.788Z,97662.67
2018-11-01T04:14:03.404Z,97660.13
2018-11-01T04:14:35.000Z,97664.81
2018-11-01T04:15:06.694Z,97660.14
2018-11-01T04:15:38.254Z,97660.19
2018-11-01T04:16:09.863Z,97657.64
2018-11-01T04:16:41.500Z,97654.66
2018-11-01T04:17:13.104Z,97655.53
2018-11-01T04:17:44.687Z,97654.67
2018-11-01T04:18:16.293Z,97660.22
2018-11-01T04:18:47.909Z,97650.05
2018-11-01T04:19:19.520Z,97648.34
2018-11-01T04:19:51.124Z,97650.48
2018-11-01T04:20:22.755Z,97649.64
2018-11-01T04:20:54.357Z,97656.03
2018-11-01T04:21:25.947Z,97646.67
2018-11-01T04:21:57.532Z,97648.84
2018-11-01T04:22:29.125Z,97653.53
2018-11-01T04:23:00.799Z,97647.16
2018-11-01T04:23:32.496Z,97648.88
2018-11-01T04:24:04.016Z,97648.08
2018-11-01T04:24:35.607Z,97647.22
2018-11-01T04:25:07.194Z,97642.12
2018-11-01T04:25:38.817Z,97650.62
2018-11-01T04:26:10.420Z,97647.65
2018-11-01T04:26:42.008Z,97644.69
2018-11-01T04:27:13.610Z,97641.69
2018-11-01T04:27:45.239Z,97649.78
2018-11-01T04:28:16.836Z,97642.54
2018-11-01T04:28:48.520Z,97645.16
2018-11-01T04:29:20.075Z,97643.01
2018-11-01T04:29:51.677Z,97650.68
2018-11-01T04:30:23.258Z,97643.89
2018-11-01T04:30:54.862Z,97648.56
2018-11-01T04:31:26.469Z,97642.23
2018-11-01T04:31:58.073Z,97647.72
2018-11-01T04:32:29.683Z,97642.23
2018-11-01T04:33:01.331Z,97647.73
2018-11-01T04:33:32.954Z,97638.41
2018-11-01T04:34:04.518Z,97639.30
2018-11-01T04:34:36.113Z,97645.22
2018-11-01T04:35:07.694Z,97639.69
2018-11-01T04:35:39.357Z,97641.83
2018-11-01T04:36:10.943Z,97647.80
2018-11-01T04:36:42.528Z,97647.38
2018-11-01T04:37:14.121Z,97638.06
2018-11-01T04:37:45.722Z,97644.88
2018-11-01T04:38:17.329Z,97651.25
2018-11-01T04:38:48.923Z,97649.12
2018-11-01T04:39:20.534Z,97645.73
2018-11-01T04:39:52.124Z,97642.77
2018-11-01T04:40:23.715Z,97640.63
2018-11-01T04:40:55.371Z,97637.66
2018-11-01T04:41:26.945Z,97652.13
2018-11-01T04:41:58.532Z,97640.22
2018-11-01T04:42:30.120Z,97639.78
2018-11-01T04:43:01.748Z,97643.66
2018-11-01T04:43:33.354Z,97655.95
2018-11-01T04:44:04.994Z,97648.29
2018-11-01T04:44:36.591Z,97654.67
2018-11-01T04:45:08.237Z,97650.42
2018-11-01T04:45:50.027Z,97656.81
2018-11-01T04:46:21.716Z,97652.98
2018-11-01T04:46:53.328Z,97651.28
2018-11-01T04:47:24.938Z,97656.43
2018-11-01T04:47:56.585Z,97654.69
2018-11-01T04:48:28.181Z,97655.16
2018-11-01T04:48:59.778Z,97656.01
2018-11-01T04:49:31.367Z,97650.91
2018-11-01T04:50:02.979Z,97653.03
2018-11-01T04:50:34.602Z,97650.05
2018-11-01T04:51:06.206Z,97645.37
2018-11-01T04:51:37.806Z,97651.75
2018-11-01T04:52:09.383Z,97641.55
2018-11-01T04:52:43.036Z,97644.55
2018-11-01T04:53:14.771Z,97644.11
2018-11-01T04:53:46.383Z,97643.27
2018-11-01T04:54:17.981Z,97641.14
2018-11-01T04:54:49.567Z,97651.36
2018-11-01T04:55:21.580Z,97652.63
2018-11-01T04:55:53.185Z,97652.22
2018-11-01T04:56:24.812Z,97655.61
2018-11-01T04:56:56.409Z,97646.72
2018-11-01T04:57:28.014Z,97649.28
2018-11-01T04:57:59.608Z,97646.73
2018-11-01T04:58:31.195Z,97642.05
2018-11-01T04:59:02.793Z,97644.19
2018-11-01T04:59:34.396Z,97611.16
2018-11-01T05:00:05.999Z,97640.84
2018-11-01T05:00:37.592Z,97642.91
2018-11-01T05:01:09.214Z,97639.02
2018-11-01T05:01:40.823Z,97635.19
2018-11-01T05:02:12.411Z,97638.57
2018-11-01T05:02:44.353Z,97640.28
2018-11-01T05:03:15.930Z,97635.62
2018-11-01T05:03:47.578Z,97637.66
2018-11-01T05:04:19.182Z,97644.45
2018-11-01T05:04:50.842Z,97643.13
2018-11-01T05:05:22.412Z,97638.00
2018-11-01T05:05:54.031Z,97640.95
2018-11-01T05:06:25.616Z,97623.34
2018-11-01T05:06:57.247Z,97640.05
2018-11-01T05:07:28.859Z,97615.03
2018-11-01T05:08:00.456Z,97643.05
2018-11-01T05:08:32.403Z,97643.52
2018-11-01T05:09:04.011Z,97643.09
2018-11-01T05:09:35.600Z,97641.00
2018-11-01T05:10:07.188Z,97650.34
2018-11-01T05:10:38.766Z,97647.79
2018-11-01T05:11:10.398Z,97643.11
2018-11-01T05:11:42.002Z,97645.22
2018-11-01T05:12:13.595Z,97646.02
2018-11-01T05:12:45.209Z,97647.30
2018-11-01T05:13:16.813Z,97650.68
2018-11-01T05:13:48.406Z,97645.57
2018-11-01T05:14:20.018Z,97640.90
2018-11-01T05:14:51.603Z,97628.44
2018-11-01T05:15:23.224Z,97646.86
2018-11-01T05:15:54.846Z,97654.10
2018-11-01T05:16:26.435Z,97651.98
2018-11-01T05:16:58.024Z,97658.83
2018-11-01T05:17:29.621Z,97655.00
2018-11-01T05:18:01.221Z,97653.31
2018-11-01T05:18:32.830Z,97653.31
2018-11-01T05:19:04.450Z,97649.50
2018-11-01T05:19:36.046Z,97644.83
2018-11-01T05:20:07.691Z,97641.00
2018-11-01T05:20:39.282Z,97636.00
2018-11-01T05:21:10.886Z,97643.59
2018-11-01T05:21:42.485Z,97638.02
2018-11-01T05:22:14.094Z,97642.31
2018-11-01T05:22:45.697Z,97639.30
2018-11-01T05:23:17.290Z,97640.14
2018-11-01T05:23:48.894Z,97637.58
2018-11-01T05:24:20.484Z,97637.15
2018-11-01T05:24:52.081Z,97592.82
2018-11-01T05:25:23.672Z,97634.53
2018-11-01T05:25:55.333Z,97634.53
2018-11-01T05:26:26.920Z,97637.92
2018-11-01T05:26:58.498Z,97630.70
2018-11-01T05:27:30.074Z,97633.74
2018-11-01T05:28:01.661Z,97634.95
2018-11-01T05:28:33.242Z,97635.36
2018-11-01T05:29:04.832Z,97636.20
2018-11-01T05:29:36.486Z,97632.80
2018-11-01T05:30:08.038Z,97629.81
2018-11-01T05:30:39.629Z,97628.54
2018-11-01T05:31:11.243Z,97634.02
2018-11-01T05:31:42.833Z,97625.94
2018-11-01T05:32:14.429Z,97631.06
2018-11-01T05:32:46.481Z,97631.01
2018-11-01T05:33:18.086Z,97633.52
2018-11-01T05:33:49.676Z,97634.75
2018-11-01T05:34:21.346Z,97635.18
2018-11-01T05:34:52.904Z,97639.41
2018-11-01T05:35:24.522Z,97639.36
2018-11-01T05:35:56.112Z,97638.07
2018-11-01T05:36:27.718Z,97644.44
2018-11-01T05:36:59.327Z,97646.14
2018-11-01T05:37:30.919Z,97638.48
2018-11-01T05:38:02.538Z,97646.50
2018-11-01T05:38:34.140Z,97641.80
2018-11-01T05:39:05.742Z,97640.89
2018-11-01T05:39:37.337Z,97639.55
2018-11-01T05:40:08.938Z,97634.41
2018-11-01T05:40:40.529Z,97642.43
2018-11-01T05:41:12.144Z,97638.52
2018-11-01T05:41:43.731Z,97640.98
2018-11-01T05:42:15.338Z,97641.78
2018-11-01T05:42:46.947Z,97635.83
2018-11-01T05:43:18.551Z,97643.84
2018-11-01T05:43:50.139Z,97638.34
2018-11-01T05:44:21.727Z,97643.41
2018-11-01T05:44:53.338Z,97645.11
2018-11-01T05:45:24.915Z,97639.56
2018-11-01T05:45:56.511Z,97636.15
2018-11-01T05:46:28.118Z,97640.41
2018-11-01T05:46:59.718Z,97641.26
2018-11-01T05:47:31.306Z,97639.14
2018-11-01T05:48:02.904Z,97639.99
2018-11-01T05:48:34.502Z,97643.41
2018-11-01T05:49:06.103Z,97635.73
2018-11-01T05:49:37.696Z,97642.10
2018-11-01T05:50:09.274Z,97635.23
2018-11-01T05:50:40.878Z,97634.80
2018-11-01T05:51:12.482Z,97628.06
2018-11-01T05:51:44.114Z,97626.72
2018-11-01T05:52:15.698Z,97628.05
2018-11-01T05:52:47.284Z,97623.87
2018-11-01T05:53:18.872Z,97624.65
2018-11-01T05:53:50.487Z,97628.93
2018-11-01T05:54:22.080Z,97634.51
2018-11-01T05:54:53.684Z,97628.98
2018-11-01T05:55:25.272Z,97630.69
2018-11-01T05:55:56.874Z,97629.84
2018-11-01T05:56:28.450Z,97635.81
2018-11-01T05:57:00.068Z,97626.45
2018-11-01T05:57:31.664Z,97632.05
2018-11-01T05:58:03.280Z,97635.88
2018-11-01T05:58:34.882Z,97630.79
2018-11-01T05:59:06.490Z,97636.34
2018-11-01T05:59:38.069Z,97637.23
2018-11-01T06:00:09.671Z,97632.98
2018-11-01T06:00:41.264Z,97631.28
2018-11-01T06:01:12.856Z,97636.84
2018-11-01T06:01:44.476Z,97640.73
2018-11-01T06:02:16.072Z,97644.63
2018-11-01T06:02:47.671Z,97642.92
2018-11-01T06:03:19.264Z,97650.61
2018-11-01T06:03:50.852Z,97649.39
2018-11-01T06:04:22.439Z,97674.53
2018-11-01T06:04:54.038Z,97651.18
2018-11-01T06:05:25.648Z,97658.00
2018-11-01T06:05:57.266Z,97663.13
2018-11-01T06:06:28.859Z,97660.20
2018-11-01T06:07:00.482Z,97653.48
2018-11-01T06:07:32.076Z,97661.11
2018-11-01T06:08:03.668Z,97655.59
2018-11-01T06:08:35.276Z,97665.83
2018-11-01T06:09:06.878Z,97659.08
2018-11-01T06:09:38.454Z,97657.39
2018-11-01T06:10:10.043Z,97641.69
2018-11-01T06:10:41.642Z,97646.81
2018-11-01T06:11:13.241Z,97641.28